sensor_id;sensor_type;location;lat;lon;timestamp;P1;durP1;ratioP1;P2;durP2;ratioP2
58681;SDS011;44460;40.162;18.294;2023-04-03T00:02:01;19.40;;;6.38;;
58681;SDS011;44460;40.162;18.294;2023-04-03T00:04:26;22.75;;;6.88;;
58681;SDS011;44460;40.162;18.294;2023-04-03T00:06:52;22.02;;;5.97;;
58681;SDS011;44460;40.162;18.294;2023-04-03T00:09:17;25.02;;;6.00;;
58681;SDS011;44460;40.162;18.294;2023-04-03T00:11:43;22.52;;;6.00;;
58681;SDS011;44460;40.162;18.294;2023-04-03T00:14:08;22.45;;;5.45;;
58681;SDS011;44460;40.162;18.294;2023-04-03T00:16:33;21.30;;;5.65;;
58681;SDS011;44460;40.162;18.294;2023-04-03T00:18:59;23.00;;;6.32;;
58681;SDS011;44460;40.162;18.294;2023-04-03T00:21:24;21.27;;;6.05;;
58681;SDS011;44460;40.162;18.294;2023-04-03T00:23:51;20.35;;;5.95;;
58681;SDS011;44460;40.162;18.294;2023-04-03T00:26:16;21.38;;;5.35;;
58681;SDS011;44460;40.162;18.294;2023-04-03T00:28:42;22.70;;;6.30;;
58681;SDS011;44460;40.162;18.294;2023-04-03T00:31:07;23.80;;;7.32;;
58681;SDS011;44460;40.162;18.294;2023-04-03T00:33:34;22.90;;;7.95;;
58681;SDS011;44460;40.162;18.294;2023-04-03T00:36:01;26.70;;;7.82;;
58681;SDS011;44460;40.162;18.294;2023-04-03T00:38:30;27.25;;;7.00;;
58681;SDS011;44460;40.162;18.294;2023-04-03T00:40:56;21.67;;;6.88;;
58681;SDS011;44460;40.162;18.294;2023-04-03T00:43:23;17.60;;;6.50;;
58681;SDS011;44460;40.162;18.294;2023-04-03T00:45:49;26.40;;;6.88;;
58681;SDS011;44460;40.162;18.294;2023-04-03T00:48:17;23.27;;;6.93;;
58681;SDS011;44460;40.162;18.294;2023-04-03T00:50:44;30.10;;;7.60;;
58681;SDS011;44460;40.162;18.294;2023-04-03T00:53:11;21.85;;;7.13;;
58681;SDS011;44460;40.162;18.294;2023-04-03T00:55:38;27.67;;;7.68;;
58681;SDS011;44460;40.162;18.294;2023-04-03T00:58:03;22.05;;;6.82;;
58681;SDS011;44460;40.162;18.294;2023-04-03T01:00:30;21.05;;;6.38;;
58681;SDS011;44460;40.162;18.294;2023-04-03T01:02:55;29.08;;;8.32;;
58681;SDS011;44460;40.162;18.294;2023-04-03T01:05:21;22.77;;;7.45;;
58681;SDS011;44460;40.162;18.294;2023-04-03T01:07:47;18.63;;;7.30;;
58681;SDS011;44460;40.162;18.294;2023-04-03T01:10:14;28.27;;;7.78;;
58681;SDS011;44460;40.162;18.294;2023-04-03T01:12:41;25.52;;;7.57;;
58681;SDS011;44460;40.162;18.294;2023-04-03T01:17:40;27.13;;;6.97;;
58681;SDS011;44460;40.162;18.294;2023-04-03T01:20:28;26.45;;;7.38;;
58681;SDS011;44460;40.162;18.294;2023-04-03T01:25:29;20.58;;;5.60;;
58681;SDS011;44460;40.162;18.294;2023-04-03T01:27:56;27.42;;;6.93;;
58681;SDS011;44460;40.162;18.294;2023-04-03T01:30:22;20.15;;;6.45;;
58681;SDS011;44460;40.162;18.294;2023-04-03T01:32:50;20.27;;;6.78;;
58681;SDS011;44460;40.162;18.294;2023-04-03T01:35:16;22.13;;;7.00;;
58681;SDS011;44460;40.162;18.294;2023-04-03T01:37:41;25.40;;;6.22;;
58681;SDS011;44460;40.162;18.294;2023-04-03T01:40:07;21.58;;;6.50;;
58681;SDS011;44460;40.162;18.294;2023-04-03T01:42:33;26.73;;;5.97;;
58681;SDS011;44460;40.162;18.294;2023-04-03T01:44:59;26.75;;;6.50;;
58681;SDS011;44460;40.162;18.294;2023-04-03T01:47:24;24.48;;;6.55;;
58681;SDS011;44460;40.162;18.294;2023-04-03T01:49:50;24.38;;;6.47;;
58681;SDS011;44460;40.162;18.294;2023-04-03T01:52:15;19.20;;;5.40;;
58681;SDS011;44460;40.162;18.294;2023-04-03T01:54:41;23.55;;;6.05;;
58681;SDS011;44460;40.162;18.294;2023-04-03T01:57:06;23.67;;;6.55;;
58681;SDS011;44460;40.162;18.294;2023-04-03T01:59:34;23.95;;;5.55;;
58681;SDS011;44460;40.162;18.294;2023-04-03T02:02:00;20.65;;;6.05;;
58681;SDS011;44460;40.162;18.294;2023-04-03T02:04:26;26.42;;;5.97;;
58681;SDS011;44460;40.162;18.294;2023-04-03T02:06:51;22.13;;;6.45;;
58681;SDS011;44460;40.162;18.294;2023-04-03T02:09:16;25.15;;;5.82;;
58681;SDS011;44460;40.162;18.294;2023-04-03T02:11:42;18.35;;;4.57;;
58681;SDS011;44460;40.162;18.294;2023-04-03T02:14:08;18.05;;;5.15;;
58681;SDS011;44460;40.162;18.294;2023-04-03T02:16:34;25.63;;;6.03;;
58681;SDS011;44460;40.162;18.294;2023-04-03T02:18:59;20.85;;;4.78;;
58681;SDS011;44460;40.162;18.294;2023-04-03T02:21:25;23.35;;;4.43;;
58681;SDS011;44460;40.162;18.294;2023-04-03T02:23:50;24.10;;;4.82;;
58681;SDS011;44460;40.162;18.294;2023-04-03T02:26:17;19.45;;;4.43;;
58681;SDS011;44460;40.162;18.294;2023-04-03T02:28:44;24.70;;;5.45;;
58681;SDS011;44460;40.162;18.294;2023-04-03T02:31:10;22.05;;;4.72;;
58681;SDS011;44460;40.162;18.294;2023-04-03T02:33:37;17.90;;;4.50;;
58681;SDS011;44460;40.162;18.294;2023-04-03T02:36:05;19.20;;;4.65;;
58681;SDS011;44460;40.162;18.294;2023-04-03T02:38:31;18.88;;;3.90;;
58681;SDS011;44460;40.162;18.294;2023-04-03T02:41:03;23.73;;;4.25;;
58681;SDS011;44460;40.162;18.294;2023-04-03T02:43:30;19.27;;;3.92;;
58681;SDS011;44460;40.162;18.294;2023-04-03T02:45:56;17.38;;;4.13;;
58681;SDS011;44460;40.162;18.294;2023-04-03T02:48:21;20.50;;;4.25;;
58681;SDS011;44460;40.162;18.294;2023-04-03T02:50:47;19.08;;;4.20;;
58681;SDS011;44460;40.162;18.294;2023-04-03T02:53:12;21.63;;;4.03;;
58681;SDS011;44460;40.162;18.294;2023-04-03T02:55:38;27.20;;;4.25;;
58681;SDS011;44460;40.162;18.294;2023-04-03T02:58:04;28.02;;;4.78;;
58681;SDS011;44460;40.162;18.294;2023-04-03T03:00:30;21.73;;;4.70;;
58681;SDS011;44460;40.162;18.294;2023-04-03T03:02:55;17.92;;;3.97;;
58681;SDS011;44460;40.162;18.294;2023-04-03T03:05:21;19.60;;;4.03;;
58681;SDS011;44460;40.162;18.294;2023-04-03T03:07:47;26.52;;;5.95;;
58681;SDS011;44460;40.162;18.294;2023-04-03T03:10:13;20.83;;;4.35;;
58681;SDS011;44460;40.162;18.294;2023-04-03T03:12:38;22.75;;;4.47;;
58681;SDS011;44460;40.162;18.294;2023-04-03T03:15:07;16.38;;;3.55;;
58681;SDS011;44460;40.162;18.294;2023-04-03T03:17:32;19.17;;;4.53;;
58681;SDS011;44460;40.162;18.294;2023-04-03T03:19:58;23.88;;;4.70;;
58681;SDS011;44460;40.162;18.294;2023-04-03T03:22:23;21.00;;;4.18;;
58681;SDS011;44460;40.162;18.294;2023-04-03T03:24:49;18.13;;;4.13;;
58681;SDS011;44460;40.162;18.294;2023-04-03T03:27:14;30.00;;;4.72;;
58681;SDS011;44460;40.162;18.294;2023-04-03T03:29:41;16.75;;;4.43;;
58681;SDS011;44460;40.162;18.294;2023-04-03T03:32:07;17.05;;;3.83;;
58681;SDS011;44460;40.162;18.294;2023-04-03T03:34:33;28.15;;;4.95;;
58681;SDS011;44460;40.162;18.294;2023-04-03T03:36:58;27.27;;;4.47;;
58681;SDS011;44460;40.162;18.294;2023-04-03T03:39:24;24.02;;;4.28;;
58681;SDS011;44460;40.162;18.294;2023-04-03T03:41:50;29.55;;;6.15;;
58681;SDS011;44460;40.162;18.294;2023-04-03T03:44:15;19.63;;;3.85;;
58681;SDS011;44460;40.162;18.294;2023-04-03T03:46:40;21.30;;;4.63;;
58681;SDS011;44460;40.162;18.294;2023-04-03T03:49:06;29.27;;;4.97;;
58681;SDS011;44460;40.162;18.294;2023-04-03T03:51:32;23.45;;;4.97;;
58681;SDS011;44460;40.162;18.294;2023-04-03T03:53:57;17.63;;;4.32;;
58681;SDS011;44460;40.162;18.294;2023-04-03T03:56:23;22.88;;;4.40;;
58681;SDS011;44460;40.162;18.294;2023-04-03T03:58:49;25.60;;;4.65;;
58681;SDS011;44460;40.162;18.294;2023-04-03T04:01:15;16.83;;;3.97;;
58681;SDS011;44460;40.162;18.294;2023-04-03T04:03:45;21.33;;;4.95;;
58681;SDS011;44460;40.162;18.294;2023-04-03T04:06:16;20.33;;;4.82;;
58681;SDS011;44460;40.162;18.294;2023-04-03T04:08:42;28.52;;;4.85;;
58681;SDS011;44460;40.162;18.294;2023-04-03T04:11:10;20.65;;;4.63;;
58681;SDS011;44460;40.162;18.294;2023-04-03T04:13:36;29.60;;;4.53;;
58681;SDS011;44460;40.162;18.294;2023-04-03T04:16:03;18.95;;;4.45;;
58681;SDS011;44460;40.162;18.294;2023-04-03T04:18:29;19.55;;;4.60;;
58681;SDS011;44460;40.162;18.294;2023-04-03T04:20:55;22.55;;;4.78;;
58681;SDS011;44460;40.162;18.294;2023-04-03T04:23:21;30.05;;;4.85;;
58681;SDS011;44460;40.162;18.294;2023-04-03T04:25:48;20.65;;;4.22;;
58681;SDS011;44460;40.162;18.294;2023-04-03T04:28:14;22.90;;;4.28;;
58681;SDS011;44460;40.162;18.294;2023-04-03T04:30:40;21.63;;;5.07;;
58681;SDS011;44460;40.162;18.294;2023-04-03T04:33:06;18.42;;;4.07;;
58681;SDS011;44460;40.162;18.294;2023-04-03T04:35:33;21.98;;;4.55;;
58681;SDS011;44460;40.162;18.294;2023-04-03T04:37:59;21.10;;;4.22;;
58681;SDS011;44460;40.162;18.294;2023-04-03T04:40:25;18.08;;;5.60;;
58681;SDS011;44460;40.162;18.294;2023-04-03T04:42:50;27.27;;;5.22;;
58681;SDS011;44460;40.162;18.294;2023-04-03T04:45:16;15.25;;;4.55;;
58681;SDS011;44460;40.162;18.294;2023-04-03T04:47:44;16.42;;;4.03;;
58681;SDS011;44460;40.162;18.294;2023-04-03T04:50:10;24.40;;;4.40;;
58681;SDS011;44460;40.162;18.294;2023-04-03T04:52:36;20.08;;;4.50;;
58681;SDS011;44460;40.162;18.294;2023-04-03T04:55:02;28.05;;;5.70;;
58681;SDS011;44460;40.162;18.294;2023-04-03T04:57:28;18.48;;;4.53;;
58681;SDS011;44460;40.162;18.294;2023-04-03T04:59:56;19.85;;;5.20;;
58681;SDS011;44460;40.162;18.294;2023-04-03T05:02:22;21.73;;;6.30;;
58681;SDS011;44460;40.162;18.294;2023-04-03T05:04:47;24.88;;;5.15;;
58681;SDS011;44460;40.162;18.294;2023-04-03T05:07:19;21.38;;;4.95;;
58681;SDS011;44460;40.162;18.294;2023-04-03T05:09:45;26.75;;;6.88;;
58681;SDS011;44460;40.162;18.294;2023-04-03T05:12:12;22.77;;;5.13;;
58681;SDS011;44460;40.162;18.294;2023-04-03T05:14:44;23.23;;;4.80;;
58681;SDS011;44460;40.162;18.294;2023-04-03T05:17:10;27.02;;;6.50;;
58681;SDS011;44460;40.162;18.294;2023-04-03T05:19:39;22.00;;;5.38;;
58681;SDS011;44460;40.162;18.294;2023-04-03T05:22:06;20.55;;;5.07;;
58681;SDS011;44460;40.162;18.294;2023-04-03T05:24:32;23.38;;;5.25;;
58681;SDS011;44460;40.162;18.294;2023-04-03T05:26:58;18.13;;;4.60;;
58681;SDS011;44460;40.162;18.294;2023-04-03T05:29:25;26.60;;;6.38;;
58681;SDS011;44460;40.162;18.294;2023-04-03T05:31:50;19.73;;;4.82;;
58681;SDS011;44460;40.162;18.294;2023-04-03T05:34:16;22.25;;;5.90;;
58681;SDS011;44460;40.162;18.294;2023-04-03T05:36:43;22.53;;;5.90;;
58681;SDS011;44460;40.162;18.294;2023-04-03T05:39:09;25.52;;;5.47;;
58681;SDS011;44460;40.162;18.294;2023-04-03T05:41:38;24.98;;;5.90;;
58681;SDS011;44460;40.162;18.294;2023-04-03T05:44:04;25.00;;;5.60;;
58681;SDS011;44460;40.162;18.294;2023-04-03T05:46:29;23.73;;;6.65;;
58681;SDS011;44460;40.162;18.294;2023-04-03T05:48:57;28.70;;;7.60;;
58681;SDS011;44460;40.162;18.294;2023-04-03T05:51:28;27.35;;;7.00;;
58681;SDS011;44460;40.162;18.294;2023-04-03T05:54:00;26.45;;;6.25;;
58681;SDS011;44460;40.162;18.294;2023-04-03T05:56:29;23.05;;;7.03;;
58681;SDS011;44460;40.162;18.294;2023-04-03T05:58:54;22.42;;;5.75;;
58681;SDS011;44460;40.162;18.294;2023-04-03T06:01:20;24.17;;;6.38;;
58681;SDS011;44460;40.162;18.294;2023-04-03T06:03:46;18.08;;;5.85;;
58681;SDS011;44460;40.162;18.294;2023-04-03T06:06:12;26.33;;;7.30;;
58681;SDS011;44460;40.162;18.294;2023-04-03T06:08:39;27.95;;;7.15;;
58681;SDS011;44460;40.162;18.294;2023-04-03T06:11:04;18.17;;;6.03;;
58681;SDS011;44460;40.162;18.294;2023-04-03T06:13:30;31.65;;;7.20;;
58681;SDS011;44460;40.162;18.294;2023-04-03T06:15:55;23.85;;;6.50;;
58681;SDS011;44460;40.162;18.294;2023-04-03T06:18:22;22.38;;;6.18;;
58681;SDS011;44460;40.162;18.294;2023-04-03T06:20:48;20.27;;;6.03;;
58681;SDS011;44460;40.162;18.294;2023-04-03T06:25:47;20.13;;;5.20;;
58681;SDS011;44460;40.162;18.294;2023-04-03T06:28:12;20.17;;;6.05;;
58681;SDS011;44460;40.162;18.294;2023-04-03T06:30:38;19.90;;;6.07;;
58681;SDS011;44460;40.162;18.294;2023-04-03T06:33:03;24.08;;;6.05;;
58681;SDS011;44460;40.162;18.294;2023-04-03T06:35:29;17.35;;;6.65;;
58681;SDS011;44460;40.162;18.294;2023-04-03T06:37:55;20.67;;;5.90;;
58681;SDS011;44460;40.162;18.294;2023-04-03T06:40:22;15.93;;;5.03;;
58681;SDS011;44460;40.162;18.294;2023-04-03T06:42:48;18.98;;;6.60;;
58681;SDS011;44460;40.162;18.294;2023-04-03T06:45:13;18.35;;;5.90;;
58681;SDS011;44460;40.162;18.294;2023-04-03T06:47:39;22.15;;;6.57;;
58681;SDS011;44460;40.162;18.294;2023-04-03T06:50:04;20.70;;;6.03;;
58681;SDS011;44460;40.162;18.294;2023-04-03T06:52:31;23.38;;;5.90;;
58681;SDS011;44460;40.162;18.294;2023-04-03T06:54:57;24.38;;;5.53;;
58681;SDS011;44460;40.162;18.294;2023-04-03T06:57:24;21.70;;;5.23;;
58681;SDS011;44460;40.162;18.294;2023-04-03T06:59:50;31.38;;;7.10;;
58681;SDS011;44460;40.162;18.294;2023-04-03T07:02:15;22.90;;;5.30;;
58681;SDS011;44460;40.162;18.294;2023-04-03T07:04:40;19.80;;;5.35;;
58681;SDS011;44460;40.162;18.294;2023-04-03T07:07:06;22.25;;;6.13;;
58681;SDS011;44460;40.162;18.294;2023-04-03T07:09:32;22.20;;;5.55;;
58681;SDS011;44460;40.162;18.294;2023-04-03T07:11:58;21.77;;;5.18;;
58681;SDS011;44460;40.162;18.294;2023-04-03T07:14:23;21.27;;;5.70;;
58681;SDS011;44460;40.162;18.294;2023-04-03T07:16:48;25.27;;;6.13;;
58681;SDS011;44460;40.162;18.294;2023-04-03T07:19:14;20.02;;;5.40;;
58681;SDS011;44460;40.162;18.294;2023-04-03T07:21:40;17.23;;;4.90;;
58681;SDS011;44460;40.162;18.294;2023-04-03T07:24:07;19.73;;;5.50;;
58681;SDS011;44460;40.162;18.294;2023-04-03T07:26:32;16.85;;;4.95;;
58681;SDS011;44460;40.162;18.294;2023-04-03T07:28:57;18.75;;;5.45;;
58681;SDS011;44460;40.162;18.294;2023-04-03T07:31:24;12.93;;;3.85;;
58681;SDS011;44460;40.162;18.294;2023-04-03T07:33:50;14.77;;;4.63;;
58681;SDS011;44460;40.162;18.294;2023-04-03T07:36:17;30.65;;;6.13;;
58681;SDS011;44460;40.162;18.294;2023-04-03T07:38:43;14.25;;;3.58;;
58681;SDS011;44460;40.162;18.294;2023-04-03T07:41:11;21.70;;;4.93;;
58681;SDS011;44460;40.162;18.294;2023-04-03T07:43:37;17.52;;;4.90;;
58681;SDS011;44460;40.162;18.294;2023-04-03T07:46:04;15.43;;;4.40;;
58681;SDS011;44460;40.162;18.294;2023-04-03T07:48:30;16.75;;;4.25;;
58681;SDS011;44460;40.162;18.294;2023-04-03T07:50:59;16.13;;;4.72;;
58681;SDS011;44460;40.162;18.294;2023-04-03T07:53:24;17.52;;;3.97;;
58681;SDS011;44460;40.162;18.294;2023-04-03T07:55:50;16.75;;;4.03;;
58681;SDS011;44460;40.162;18.294;2023-04-03T07:58:20;16.88;;;3.55;;
58681;SDS011;44460;40.162;18.294;2023-04-03T08:00:46;8.93;;;3.38;;
58681;SDS011;44460;40.162;18.294;2023-04-03T08:03:11;15.68;;;4.20;;
58681;SDS011;44460;40.162;18.294;2023-04-03T08:05:39;13.50;;;3.40;;
58681;SDS011;44460;40.162;18.294;2023-04-03T08:08:07;17.58;;;3.58;;
58681;SDS011;44460;40.162;18.294;2023-04-03T08:10:33;10.52;;;2.88;;
58681;SDS011;44460;40.162;18.294;2023-04-03T08:12:59;20.67;;;3.47;;
58681;SDS011;44460;40.162;18.294;2023-04-03T08:15:24;15.93;;;3.17;;
58681;SDS011;44460;40.162;18.294;2023-04-03T08:17:53;13.50;;;3.10;;
58681;SDS011;44460;40.162;18.294;2023-04-03T08:20:19;21.33;;;4.65;;
58681;SDS011;44460;40.162;18.294;2023-04-03T08:22:45;11.25;;;2.95;;
58681;SDS011;44460;40.162;18.294;2023-04-03T08:25:10;19.40;;;4.97;;
58681;SDS011;44460;40.162;18.294;2023-04-03T08:27:36;19.98;;;4.57;;
58681;SDS011;44460;40.162;18.294;2023-04-03T08:30:02;12.77;;;2.90;;
58681;SDS011;44460;40.162;18.294;2023-04-03T08:32:29;14.13;;;4.03;;
58681;SDS011;44460;40.162;18.294;2023-04-03T08:34:55;13.80;;;3.53;;
58681;SDS011;44460;40.162;18.294;2023-04-03T08:37:20;14.27;;;3.72;;
58681;SDS011;44460;40.162;18.294;2023-04-03T08:39:46;16.90;;;5.18;;
58681;SDS011;44460;40.162;18.294;2023-04-03T08:42:20;14.90;;;3.42;;
58681;SDS011;44460;40.162;18.294;2023-04-03T08:45:10;12.50;;;4.47;;
58681;SDS011;44460;40.162;18.294;2023-04-03T08:47:38;14.75;;;5.45;;
58681;SDS011;44460;40.162;18.294;2023-04-03T08:52:35;14.07;;;4.60;;
58681;SDS011;44460;40.162;18.294;2023-04-03T08:57:46;15.25;;;4.18;;
58681;SDS011;44460;40.162;18.294;2023-04-03T09:05:11;14.63;;;3.30;;
58681;SDS011;44460;40.162;18.294;2023-04-03T09:07:47;19.70;;;4.65;;
58681;SDS011;44460;40.162;18.294;2023-04-03T09:10:15;14.02;;;4.43;;
58681;SDS011;44460;40.162;18.294;2023-04-03T09:12:43;12.75;;;3.75;;
58681;SDS011;44460;40.162;18.294;2023-04-03T09:17:44;16.60;;;3.10;;
58681;SDS011;44460;40.162;18.294;2023-04-03T09:22:45;16.70;;;4.05;;
58681;SDS011;44460;40.162;18.294;2023-04-03T09:25:32;10.00;;;2.97;;
58681;SDS011;44460;40.162;18.294;2023-04-03T09:27:59;16.27;;;3.10;;
58681;SDS011;44460;40.162;18.294;2023-04-03T09:30:24;10.55;;;2.78;;
58681;SDS011;44460;40.162;18.294;2023-04-03T09:32:52;9.55;;;2.50;;
58681;SDS011;44460;40.162;18.294;2023-04-03T09:35:25;10.40;;;2.88;;
58681;SDS011;44460;40.162;18.294;2023-04-03T09:37:52;15.13;;;4.07;;
58681;SDS011;44460;40.162;18.294;2023-04-03T09:40:31;16.10;;;2.80;;
58681;SDS011;44460;40.162;18.294;2023-04-03T09:43:00;16.15;;;4.05;;
58681;SDS011;44460;40.162;18.294;2023-04-03T09:45:28;13.98;;;2.95;;
58681;SDS011;44460;40.162;18.294;2023-04-03T09:50:34;7.20;;;2.42;;
58681;SDS011;44460;40.162;18.294;2023-04-03T09:53:04;10.10;;;2.65;;
58681;SDS011;44460;40.162;18.294;2023-04-03T09:55:29;12.55;;;3.25;;
58681;SDS011;44460;40.162;18.294;2023-04-03T09:58:03;10.43;;;3.03;;
58681;SDS011;44460;40.162;18.294;2023-04-03T10:00:35;9.75;;;2.90;;
58681;SDS011;44460;40.162;18.294;2023-04-03T10:03:01;15.63;;;3.05;;
58681;SDS011;44460;40.162;18.294;2023-04-03T10:05:37;13.07;;;2.47;;
58681;SDS011;44460;40.162;18.294;2023-04-03T10:08:07;10.40;;;2.33;;
58681;SDS011;44460;40.162;18.294;2023-04-03T10:10:33;9.43;;;2.50;;
58681;SDS011;44460;40.162;18.294;2023-04-03T10:13:12;13.82;;;2.72;;
58681;SDS011;44460;40.162;18.294;2023-04-03T10:15:45;20.30;;;3.45;;
58681;SDS011;44460;40.162;18.294;2023-04-03T10:20:57;14.25;;;2.70;;
58681;SDS011;44460;40.162;18.294;2023-04-03T10:23:26;12.15;;;2.58;;
58681;SDS011;44460;40.162;18.294;2023-04-03T10:38:41;15.77;;;4.18;;
58681;SDS011;44460;40.162;18.294;2023-04-03T10:41:10;11.48;;;2.63;;
58681;SDS011;44460;40.162;18.294;2023-04-03T10:51:17;21.00;;;4.10;;
58681;SDS011;44460;40.162;18.294;2023-04-03T10:58:52;12.68;;;2.28;;
58681;SDS011;44460;40.162;18.294;2023-04-03T11:01:20;14.82;;;2.58;;
58681;SDS011;44460;40.162;18.294;2023-04-03T11:03:57;17.48;;;3.40;;
58681;SDS011;44460;40.162;18.294;2023-04-03T11:06:24;23.38;;;3.38;;
58681;SDS011;44460;40.162;18.294;2023-04-03T11:08:51;11.02;;;2.65;;
58681;SDS011;44460;40.162;18.294;2023-04-03T11:11:24;11.38;;;3.15;;
58681;SDS011;44460;40.162;18.294;2023-04-03T11:16:18;8.93;;;1.77;;
58681;SDS011;44460;40.162;18.294;2023-04-03T11:18:49;14.07;;;2.20;;
58681;SDS011;44460;40.162;18.294;2023-04-03T11:21:21;13.43;;;2.15;;
58681;SDS011;44460;40.162;18.294;2023-04-03T11:23:48;9.25;;;1.90;;
58681;SDS011;44460;40.162;18.294;2023-04-03T11:26:18;6.60;;;1.60;;
58681;SDS011;44460;40.162;18.294;2023-04-03T11:28:43;6.70;;;1.58;;
58681;SDS011;44460;40.162;18.294;2023-04-03T11:36:41;13.77;;;2.40;;
58681;SDS011;44460;40.162;18.294;2023-04-03T11:39:17;9.20;;;1.83;;
58681;SDS011;44460;40.162;18.294;2023-04-03T11:41:45;6.63;;;1.52;;
58681;SDS011;44460;40.162;18.294;2023-04-03T11:44:53;10.68;;;1.77;;
58681;SDS011;44460;40.162;18.294;2023-04-03T11:47:01;11.35;;;2.60;;
58681;SDS011;44460;40.162;18.294;2023-04-03T11:52:11;13.95;;;2.80;;
58681;SDS011;44460;40.162;18.294;2023-04-03T11:59:50;11.60;;;2.30;;
58681;SDS011;44460;40.162;18.294;2023-04-03T12:02:34;14.40;;;2.10;;
58681;SDS011;44460;40.162;18.294;2023-04-03T12:07:52;8.43;;;1.85;;
58681;SDS011;44460;40.162;18.294;2023-04-03T12:10:30;9.55;;;1.73;;
58681;SDS011;44460;40.162;18.294;2023-04-03T12:12:56;9.27;;;1.52;;
58681;SDS011;44460;40.162;18.294;2023-04-03T12:15:24;11.23;;;2.47;;
58681;SDS011;44460;40.162;18.294;2023-04-03T12:17:51;15.10;;;2.10;;
58681;SDS011;44460;40.162;18.294;2023-04-03T12:23:08;12.32;;;2.58;;
58681;SDS011;44460;40.162;18.294;2023-04-03T12:25:47;11.85;;;2.13;;
58681;SDS011;44460;40.162;18.294;2023-04-03T12:28:14;15.57;;;3.20;;
58681;SDS011;44460;40.162;18.294;2023-04-03T12:30:40;9.98;;;2.20;;
58681;SDS011;44460;40.162;18.294;2023-04-03T12:35:37;14.25;;;3.35;;
58681;SDS011;44460;40.162;18.294;2023-04-03T12:38:18;10.15;;;1.80;;
58681;SDS011;44460;40.162;18.294;2023-04-03T12:48:18;9.52;;;1.83;;
58681;SDS011;44460;40.162;18.294;2023-04-03T12:50:46;7.95;;;1.90;;
58681;SDS011;44460;40.162;18.294;2023-04-03T12:53:13;7.82;;;2.05;;
58681;SDS011;44460;40.162;18.294;2023-04-03T12:58:21;8.88;;;1.60;;
58681;SDS011;44460;40.162;18.294;2023-04-03T13:00:58;11.38;;;1.73;;
58681;SDS011;44460;40.162;18.294;2023-04-03T13:03:24;13.23;;;2.33;;
58681;SDS011;44460;40.162;18.294;2023-04-03T13:05:52;9.80;;;2.35;;
58681;SDS011;44460;40.162;18.294;2023-04-03T13:08:17;14.30;;;1.83;;
58681;SDS011;44460;40.162;18.294;2023-04-03T13:13:31;15.15;;;2.40;;
58681;SDS011;44460;40.162;18.294;2023-04-03T13:15:57;12.80;;;3.05;;
58681;SDS011;44460;40.162;18.294;2023-04-03T13:20:56;12.75;;;1.98;;
58681;SDS011;44460;40.162;18.294;2023-04-03T13:23:22;10.15;;;2.00;;
58681;SDS011;44460;40.162;18.294;2023-04-03T13:25:48;11.98;;;1.75;;
58681;SDS011;44460;40.162;18.294;2023-04-03T13:28:19;11.02;;;1.88;;
58681;SDS011;44460;40.162;18.294;2023-04-03T13:31:45;10.05;;;1.60;;
58681;SDS011;44460;40.162;18.294;2023-04-03T13:33:50;3.75;;;1.45;;
58681;SDS011;44460;40.162;18.294;2023-04-03T13:36:20;10.50;;;1.70;;
58681;SDS011;44460;40.162;18.294;2023-04-03T13:38:57;9.75;;;1.77;;
58681;SDS011;44460;40.162;18.294;2023-04-03T13:41:30;9.57;;;1.77;;
58681;SDS011;44460;40.162;18.294;2023-04-03T13:43:55;6.32;;;1.65;;
58681;SDS011;44460;40.162;18.294;2023-04-03T13:46:23;12.50;;;1.85;;
58681;SDS011;44460;40.162;18.294;2023-04-03T13:48:50;13.48;;;2.50;;
58681;SDS011;44460;40.162;18.294;2023-04-03T13:51:21;6.93;;;1.53;;
58681;SDS011;44460;40.162;18.294;2023-04-03T13:53:49;9.43;;;1.77;;
58681;SDS011;44460;40.162;18.294;2023-04-03T13:56:34;9.25;;;1.45;;
58681;SDS011;44460;40.162;18.294;2023-04-03T14:01:42;9.02;;;1.60;;
58681;SDS011;44460;40.162;18.294;2023-04-03T14:04:21;9.40;;;1.55;;
58681;SDS011;44460;40.162;18.294;2023-04-03T14:06:48;8.73;;;1.60;;
58681;SDS011;44460;40.162;18.294;2023-04-03T14:09:14;11.23;;;1.60;;
58681;SDS011;44460;40.162;18.294;2023-04-03T14:11:40;10.82;;;1.58;;
58681;SDS011;44460;40.162;18.294;2023-04-03T14:14:16;9.32;;;3.22;;
58681;SDS011;44460;40.162;18.294;2023-04-03T14:16:44;9.05;;;2.03;;
58681;SDS011;44460;40.162;18.294;2023-04-03T14:19:14;7.20;;;1.75;;
58681;SDS011;44460;40.162;18.294;2023-04-03T14:21:41;4.20;;;1.13;;
58681;SDS011;44460;40.162;18.294;2023-04-03T14:24:07;5.40;;;1.38;;
58681;SDS011;44460;40.162;18.294;2023-04-03T14:26:32;12.35;;;2.30;;
58681;SDS011;44460;40.162;18.294;2023-04-03T14:28:58;4.85;;;0.98;;
58681;SDS011;44460;40.162;18.294;2023-04-03T14:31:23;3.65;;;1.30;;
58681;SDS011;44460;40.162;18.294;2023-04-03T14:33:49;5.93;;;1.40;;
58681;SDS011;44460;40.162;18.294;2023-04-03T14:36:25;3.63;;;1.30;;
58681;SDS011;44460;40.162;18.294;2023-04-03T14:38:51;5.63;;;1.92;;
58681;SDS011;44460;40.162;18.294;2023-04-03T14:41:18;2.20;;;0.85;;
58681;SDS011;44460;40.162;18.294;2023-04-03T14:43:44;4.75;;;1.50;;
58681;SDS011;44460;40.162;18.294;2023-04-03T14:46:14;2.08;;;0.82;;
58681;SDS011;44460;40.162;18.294;2023-04-03T14:48:41;4.35;;;1.15;;
58681;SDS011;44460;40.162;18.294;2023-04-03T14:51:06;8.30;;;1.20;;
58681;SDS011;44460;40.162;18.294;2023-04-03T14:53:32;4.28;;;1.25;;
58681;SDS011;44460;40.162;18.294;2023-04-03T14:55:58;9.15;;;1.52;;
58681;SDS011;44460;40.162;18.294;2023-04-03T14:58:23;7.10;;;1.50;;
58681;SDS011;44460;40.162;18.294;2023-04-03T15:00:49;4.13;;;1.20;;
58681;SDS011;44460;40.162;18.294;2023-04-03T15:03:18;5.88;;;1.40;;
58681;SDS011;44460;40.162;18.294;2023-04-03T15:05:45;6.70;;;1.40;;
58681;SDS011;44460;40.162;18.294;2023-04-03T15:08:18;5.95;;;1.52;;
58681;SDS011;44460;40.162;18.294;2023-04-03T15:10:44;9.18;;;2.10;;
58681;SDS011;44460;40.162;18.294;2023-04-03T15:13:10;10.40;;;2.15;;
58681;SDS011;44460;40.162;18.294;2023-04-03T15:15:37;8.43;;;3.35;;
58681;SDS011;44460;40.162;18.294;2023-04-03T15:18:02;18.55;;;7.43;;
58681;SDS011;44460;40.162;18.294;2023-04-03T15:20:28;7.45;;;3.50;;
58681;SDS011;44460;40.162;18.294;2023-04-03T15:22:55;7.15;;;2.20;;
58681;SDS011;44460;40.162;18.294;2023-04-03T15:25:26;6.85;;;2.13;;
58681;SDS011;44460;40.162;18.294;2023-04-03T15:27:52;9.82;;;2.53;;
58681;SDS011;44460;40.162;18.294;2023-04-03T15:30:18;9.10;;;3.15;;
58681;SDS011;44460;40.162;18.294;2023-04-03T15:32:44;7.03;;;2.22;;
58681;SDS011;44460;40.162;18.294;2023-04-03T15:35:10;7.45;;;2.15;;
58681;SDS011;44460;40.162;18.294;2023-04-03T15:37:36;11.30;;;3.95;;
58681;SDS011;44460;40.162;18.294;2023-04-03T15:40:03;12.38;;;5.00;;
58681;SDS011;44460;40.162;18.294;2023-04-03T15:42:28;10.98;;;5.50;;
58681;SDS011;44460;40.162;18.294;2023-04-03T15:44:54;19.48;;;12.27;;
58681;SDS011;44460;40.162;18.294;2023-04-03T15:47:19;12.18;;;5.75;;
58681;SDS011;44460;40.162;18.294;2023-04-03T15:49:45;7.68;;;4.05;;
58681;SDS011;44460;40.162;18.294;2023-04-03T15:52:10;5.57;;;2.55;;
58681;SDS011;44460;40.162;18.294;2023-04-03T15:54:36;10.00;;;2.90;;
58681;SDS011;44460;40.162;18.294;2023-04-03T15:57:01;9.77;;;3.35;;
58681;SDS011;44460;40.162;18.294;2023-04-03T15:59:27;7.50;;;3.17;;
58681;SDS011;44460;40.162;18.294;2023-04-03T16:01:54;7.68;;;3.38;;